createdAt,value
2018-01-24T00:00:14.723Z,39.79
2018-01-24T00:01:14.707Z,39.51
2018-01-24T00:02:14.976Z,39.29
2018-01-24T00:03:14.674Z,39.6
2018-01-24T00:04:14.939Z,39.89
2018-01-24T00:05:14.930Z,39.89
2018-01-24T00:06:14.897Z,39.32
2018-01-24T00:07:14.901Z,39.68
2018-01-24T00:08:14.594Z,39.29
2018-01-24T00:09:14.578Z,39.13
2018-01-24T00:10:14.585Z,39.22
2018-01-24T00:11:14.548Z,39.22
2018-01-24T00:12:14.802Z,39.87
2018-01-24T00:13:14.785Z,39.98
2018-01-24T00:14:14.496Z,39.89
2018-01-24T00:15:14.485Z,40.26
2018-01-24T00:16:14.474Z,40.06
2018-01-24T00:17:14.448Z,40.25
2018-01-24T00:18:14.453Z,40.74
2018-01-24T00:19:14.433Z,40.55
2018-01-24T00:20:14.400Z,40.17
2018-01-24T00:21:14.402Z,39.98
2018-01-24T00:22:14.371Z,39.87
2018-01-24T00:23:14.354Z,39.98
2018-01-24T00:24:14.608Z,40.06
2018-01-24T00:25:14.325Z,40.08
2018-01-24T00:26:14.310Z,40.74
2018-01-24T00:27:14.289Z,40.83
2018-01-24T00:28:14.273Z,40.45
2018-01-24T00:29:14.551Z,40.83
2018-01-24T00:30:14.515Z,40.93
2018-01-24T00:31:14.495Z,40.83
2018-01-24T00:32:14.491Z,39.96
2018-01-24T00:33:14.207Z,39.98
2018-01-24T00:34:14.181Z,39.79
2018-01-24T00:35:14.161Z,39.98
2018-01-24T00:36:14.145Z,39.79
2018-01-24T00:37:14.397Z,39.7
2018-01-24T00:38:14.405Z,39.79
2018-01-24T00:39:14.117Z,39.32
2018-01-24T00:40:14.081Z,39.51
2018-01-24T00:41:14.361Z,39.7
2018-01-24T00:42:14.051Z,39.7
2018-01-24T00:43:14.035Z,39.7
2018-01-24T00:44:14.028Z,39.51
2018-01-24T00:45:14.280Z,39.22
2018-01-24T00:46:14.008Z,39.03
2018-01-24T00:47:14.263Z,38.94
2018-01-24T00:48:13.954Z,39.22
2018-01-24T00:49:14.208Z,39.32
2018-01-24T00:50:13.921Z,39.32
2018-01-24T00:51:13.910Z,39.22
2018-01-24T00:52:13.891Z,39.13
2018-01-24T00:53:13.895Z,38.94
2018-01-24T00:54:13.861Z,38.94
2018-01-24T00:55:14.112Z,38.94
2018-01-24T00:56:14.123Z,39.03
2018-01-24T00:57:14.081Z,38.84
2018-01-24T00:58:13.796Z,38.75
2018-01-24T00:59:13.779Z,38.46
2018-01-24T01:00:13.763Z,38.56
2018-01-24T01:01:13.751Z,38.46
2018-01-24T01:02:14.003Z,38.09
2018-01-24T01:03:13.714Z,38.18
2018-01-24T01:04:13.700Z,38.18
2018-01-24T01:05:13.692Z,38.37
2018-01-24T01:06:13.666Z,38.28
2018-01-24T01:07:13.652Z,38.28
2018-01-24T01:08:13.906Z,37.9
2018-01-24T01:09:13.893Z,37.52
2018-01-24T01:10:13.891Z,37.33
2018-01-24T01:11:13.859Z,37.99
2018-01-24T01:12:13.600Z,37.52
2018-01-24T01:13:13.556Z,37.33
2018-01-24T01:14:13.536Z,37.61
2018-01-24T01:15:13.524Z,37.04
2018-01-24T01:16:13.506Z,37.04
2018-01-24T01:17:13.493Z,36.85
2018-01-24T01:18:13.476Z,37.04
2018-01-24T01:19:13.730Z,37.23
2018-01-24T01:20:13.445Z,37.42
2018-01-24T01:21:13.742Z,36.57
2018-01-24T01:22:13.431Z,36
2018-01-24T01:23:13.720Z,35.81
2018-01-24T01:24:13.658Z,35.43
2018-01-24T01:25:13.367Z,35.72
2018-01-24T01:26:13.367Z,35.43
2018-01-24T01:27:13.351Z,34.96
2018-01-24T01:28:13.315Z,34.86
2018-01-24T01:29:13.299Z,34.2
2018-01-24T01:30:13.567Z,34.2
2018-01-24T01:31:13.268Z,33.73
2018-01-24T01:32:13.251Z,33.54
2018-01-24T01:33:13.236Z,33.35
2018-01-24T01:34:13.225Z,33.16
2018-01-24T01:35:13.493Z,33.06
2018-01-24T01:36:13.464Z,33.06
2018-01-24T01:37:13.445Z,32.97
2018-01-24T01:38:13.434Z,32.87
2018-01-24T01:39:13.139Z,33.16
2018-01-24T01:40:13.124Z,33.06
2018-01-24T01:41:13.110Z,32.78
2018-01-24T01:42:13.093Z,32.68
2018-01-24T01:43:13.349Z,32.68
2018-01-24T01:44:13.061Z,32.5
2018-01-24T01:45:13.045Z,32.02
2018-01-24T01:46:13.032Z,31.45
2018-01-24T01:47:13.013Z,31.64
2018-01-24T01:48:12.998Z,30.69
2018-01-24T01:49:13.003Z,30.32
2018-01-24T01:50:12.965Z,29.84
2018-01-24T01:51:12.950Z,29.65
2018-01-24T01:52:12.932Z,29.08
2018-01-24T01:53:12.919Z,28.8
2018-01-24T01:54:12.901Z,28.52
2018-01-24T01:55:12.888Z,28.23
2018-01-24T01:56:12.872Z,28.42
2018-01-24T01:57:12.878Z,27.95
2018-01-24T01:58:13.109Z,27.95
2018-01-24T01:59:12.823Z,27.85
2018-01-24T02:00:12.807Z,27.95
2018-01-24T02:01:12.792Z,27.57
2018-01-24T02:02:12.777Z,27.57
2018-01-24T02:03:12.760Z,27.47
2018-01-24T02:04:12.743Z,27.38
2018-01-24T02:05:12.727Z,27.66
2018-01-24T02:06:12.714Z,27.47
2018-01-24T02:07:12.698Z,27.28
2018-01-24T02:08:12.972Z,26.81
2018-01-24T02:09:12.665Z,26.81
2018-01-24T02:10:12.650Z,27.09
2018-01-24T02:11:12.633Z,26.53
2018-01-24T02:12:12.617Z,26.53
2018-01-24T02:13:12.599Z,26.81
2018-01-24T02:14:12.585Z,26.34
2018-01-24T02:15:12.584Z,26.24
2018-01-24T02:16:12.552Z,26.34
2018-01-24T02:17:12.535Z,26.62
2018-01-24T02:18:12.536Z,26.72
2018-01-24T02:19:12.506Z,26.43
2018-01-24T02:20:12.491Z,26.43
2018-01-24T02:21:12.472Z,26.72
2018-01-24T02:22:12.458Z,26.43
2018-01-24T02:23:12.440Z,26.34
2018-01-24T02:24:12.425Z,26.53
2018-01-24T02:25:12.411Z,26.53
2018-01-24T02:26:12.406Z,26.53
2018-01-24T02:27:12.379Z,26.43
2018-01-24T02:28:12.634Z,26.53
2018-01-24T02:29:12.681Z,26.43
2018-01-24T02:30:12.603Z,26.34
2018-01-24T02:31:12.595Z,26.43
2018-01-24T02:32:12.571Z,26.34
2018-01-24T02:33:12.285Z,26.43
2018-01-24T02:34:12.269Z,26.43
2018-01-24T02:35:12.521Z,25.96
2018-01-24T02:36:12.509Z,25.96
2018-01-24T02:37:12.493Z,25.96
2018-01-24T02:38:12.476Z,25.86
2018-01-24T02:39:12.188Z,25.58
2018-01-24T02:40:12.460Z,25.39
2018-01-24T02:41:12.427Z,25.67
2018-01-24T02:42:12.411Z,25.58
2018-01-24T02:43:12.398Z,25.67
2018-01-24T02:44:12.114Z,25.58
2018-01-24T02:45:12.102Z,25.48
2018-01-24T02:46:12.079Z,25.01
2018-01-24T02:47:12.063Z,24.82
2018-01-24T02:48:12.045Z,25.01
2018-01-24T02:49:12.030Z,24.63
2018-01-24T02:50:12.022Z,24.44
2018-01-24T02:51:12.003Z,24.06
2018-01-24T02:52:11.981Z,23.68
2018-01-24T02:53:12.241Z,23.87
2018-01-24T02:54:11.950Z,23.49
2018-01-24T02:55:11.937Z,23.68
2018-01-24T02:56:11.930Z,23.4
2018-01-24T02:57:11.906Z,22.74
2018-01-24T02:58:11.887Z,23.21
2018-01-24T02:59:11.874Z,22.64
2018-01-24T03:00:11.857Z,22.55
2018-01-24T03:01:11.838Z,22.27
2018-01-24T03:02:11.839Z,22.55
2018-01-24T03:03:11.808Z,22.36
2018-01-24T03:04:11.795Z,22.45
2018-01-24T03:05:11.783Z,22.55
2018-01-24T03:06:11.759Z,22.55
2018-01-24T03:07:11.749Z,22.64
2018-01-24T03:08:11.729Z,22.45
2018-01-24T03:09:11.712Z,21.69
2018-01-24T03:10:11.697Z,21.79
2018-01-24T03:11:11.679Z,21.6
2018-01-24T03:12:11.667Z,21.6
2018-01-24T03:13:11.648Z,21.6
2018-01-24T03:14:11.642Z,21.41
2018-01-24T03:15:11.618Z,21.79
2018-01-24T03:16:11.616Z,22.07
2018-01-24T03:17:11.585Z,21.88
2018-01-24T03:18:11.592Z,21.98
2018-01-24T03:19:11.555Z,21.98
2018-01-24T03:20:11.538Z,21.69
2018-01-24T03:21:11.523Z,22.17
2018-01-24T03:22:11.516Z,22.36
2018-01-24T03:23:11.490Z,22.45
2018-01-24T03:24:11.770Z,22.64
2018-01-24T03:25:11.463Z,22.36
2018-01-24T03:26:11.444Z,22.64
2018-01-24T03:27:11.427Z,22.55
2018-01-24T03:28:11.412Z,22.45
2018-01-24T03:29:11.397Z,22.55
2018-01-24T03:30:11.382Z,22.83
2018-01-24T03:31:11.367Z,22.83
2018-01-24T03:32:11.619Z,22.92
2018-01-24T03:33:11.331Z,23.21
2018-01-24T03:34:11.591Z,22.64
2018-01-24T03:35:11.302Z,22.74
2018-01-24T03:36:11.282Z,23.3
2018-01-24T03:37:11.539Z,22.92
2018-01-24T03:38:11.531Z,23.3
2018-01-24T03:39:11.508Z,23.3
2018-01-24T03:40:11.492Z,23.59
2018-01-24T03:41:11.203Z,23.49
2018-01-24T03:42:11.191Z,23.59
2018-01-24T03:43:11.173Z,23.59
2018-01-24T03:44:11.434Z,23.68
2018-01-24T03:45:11.142Z,23.68
2018-01-24T03:46:11.140Z,23.97
2018-01-24T03:47:11.112Z,23.78
2018-01-24T03:48:11.099Z,23.87
2018-01-24T03:49:11.080Z,24.35
2018-01-24T03:50:11.071Z,24.54
2018-01-24T03:51:11.337Z,24.35
2018-01-24T03:52:11.053Z,25.1
2018-01-24T03:53:11.018Z,24.73
2018-01-24T03:54:11.272Z,25.29
2018-01-24T03:55:11.262Z,24.91
2018-01-24T03:56:11.240Z,25.67
2018-01-24T03:57:10.954Z,25.48
2018-01-24T03:58:10.939Z,25.77
2018-01-24T03:59:10.921Z,25.58
2018-01-24T04:00:10.916Z,25.96
2018-01-24T04:01:10.892Z,25.86
2018-01-24T04:02:10.896Z,25.86
2018-01-24T04:03:11.140Z,25.86
2018-01-24T04:04:11.115Z,25.58
2018-01-24T04:05:10.827Z,25.48
2018-01-24T04:06:10.811Z,25.48
2018-01-24T04:07:11.075Z,25.58
2018-01-24T04:08:10.785Z,25.1
2018-01-24T04:09:10.765Z,25.39
2018-01-24T04:10:11.019Z,25.01
2018-01-24T04:11:10.734Z,24.44
2018-01-24T04:12:11.016Z,24.44
2018-01-24T04:13:10.975Z,23.87
2018-01-24T04:14:10.687Z,23.87
2018-01-24T04:15:10.673Z,23.97
2018-01-24T04:16:10.927Z,23.87
2018-01-24T04:17:10.662Z,23.97
2018-01-24T04:18:10.895Z,23.68
2018-01-24T04:19:10.610Z,23.97
2018-01-24T04:20:10.592Z,23.68
2018-01-24T04:21:10.578Z,23.87
2018-01-24T04:22:10.562Z,24.16
2018-01-24T04:23:10.817Z,23.87
2018-01-24T04:24:10.799Z,23.68
2018-01-24T04:25:10.525Z,23.78
2018-01-24T04:26:10.499Z,23.68
2018-01-24T04:27:10.483Z,23.68
2018-01-24T04:28:10.472Z,23.4
2018-01-24T04:29:10.723Z,23.68
2018-01-24T04:30:10.438Z,23.49
2018-01-24T04:31:10.433Z,24.06
2018-01-24T04:32:10.411Z,24.44
2018-01-24T04:33:10.390Z,24.54
2018-01-24T04:34:10.654Z,24.73
2018-01-24T04:35:10.357Z,24.63
2018-01-24T04:36:10.360Z,24.73
2018-01-24T04:37:10.327Z,24.54
2018-01-24T04:38:10.310Z,24.54
2018-01-24T04:39:10.565Z,24.91
2018-01-24T04:40:10.278Z,24.91
2018-01-24T04:41:10.287Z,25.29
2018-01-24T04:42:10.519Z,25.2
2018-01-24T04:43:10.505Z,25.58
2018-01-24T04:44:10.217Z,25.86
2018-01-24T04:45:10.489Z,26.24
2018-01-24T04:46:10.484Z,25.96
2018-01-24T04:47:10.181Z,26.62
2018-01-24T04:48:10.153Z,26.24
2018-01-24T04:49:10.138Z,26.05
2018-01-24T04:50:10.397Z,25.86
2018-01-24T04:51:10.108Z,25.67
2018-01-24T04:52:10.096Z,25.58
2018-01-24T04:53:10.348Z,25.67
2018-01-24T04:54:10.331Z,25.77
2018-01-24T04:55:10.064Z,26.34
2018-01-24T04:56:10.033Z,26.15
2018-01-24T04:57:10.285Z,26.24
2018-01-24T04:58:09.998Z,26.15
2018-01-24T04:59:09.984Z,26.24
2018-01-24T05:00:10.242Z,26.05
2018-01-24T05:01:10.239Z,26.62
2018-01-24T05:02:09.944Z,26.81
2018-01-24T05:03:10.193Z,26.9
2018-01-24T05:04:10.176Z,27
2018-01-24T05:05:09.892Z,26.9
2018-01-24T05:06:10.165Z,27.09
2018-01-24T05:07:10.129Z,27.58
2018-01-24T05:08:09.843Z,28.06
2018-01-24T05:09:09.827Z,28.14
2018-01-24T05:10:10.084Z,28.15
2018-01-24T05:11:09.813Z,28.81
2018-01-24T05:12:09.780Z,28.72
2018-01-24T05:13:10.038Z,28.7
2018-01-24T05:14:09.751Z,28.61
2018-01-24T05:15:09.735Z,28.89
2018-01-24T05:16:09.989Z,29.08
2018-01-24T05:17:09.703Z,28.81
2018-01-24T05:18:09.689Z,29
2018-01-24T05:19:09.945Z,29.29
2018-01-24T05:20:09.658Z,29.48
2018-01-24T05:21:09.972Z,29.48
2018-01-24T05:22:09.626Z,29.38
2018-01-24T05:23:09.629Z,29.67
2018-01-24T05:24:09.594Z,29.38
2018-01-24T05:25:09.579Z,29.29
2018-01-24T05:26:09.566Z,29.29
2018-01-24T05:27:09.549Z,29.76
2018-01-24T05:28:09.825Z,30.71
2018-01-24T05:29:09.519Z,31.37
2018-01-24T05:30:09.505Z,32.04
2018-01-24T05:31:09.489Z,32.23
2018-01-24T05:32:09.741Z,32.51
2018-01-24T05:33:09.477Z,32.7
2018-01-24T05:34:09.713Z,32.89
2018-01-24T05:35:09.427Z,32.98
2018-01-24T05:36:09.409Z,33.46
2018-01-24T05:37:09.667Z,33.46
2018-01-24T05:38:09.379Z,33.94
2018-01-24T05:39:09.367Z,33.65
2018-01-24T05:40:09.374Z,33.65
2018-01-24T05:41:09.341Z,33.75
2018-01-24T05:42:09.320Z,33.56
2018-01-24T05:43:09.304Z,33.75
2018-01-24T05:44:09.295Z,33.46
2018-01-24T05:45:09.274Z,33.65
2018-01-24T05:46:09.529Z,33.46
2018-01-24T05:47:09.241Z,32.98
2018-01-24T05:48:09.549Z,32.7
2018-01-24T05:49:09.214Z,32.7
2018-01-24T05:50:09.468Z,32.42
2018-01-24T05:51:09.183Z,32.23
2018-01-24T05:52:09.179Z,32.7
2018-01-24T05:53:09.423Z,32.6
2018-01-24T05:54:09.138Z,32.98
2018-01-24T05:55:09.121Z,33.08
2018-01-24T05:56:09.374Z,33.08
2018-01-24T05:57:09.389Z,33.46
2018-01-24T05:58:09.076Z,33.94
2018-01-24T05:59:09.331Z,34.03
2018-01-24T06:00:09.045Z,34.22
2018-01-24T06:01:09.036Z,34.12
2018-01-24T06:02:09.283Z,34.5
2018-01-24T06:03:09.001Z,35.07
2018-01-24T06:04:08.985Z,35.64
2018-01-24T06:05:08.968Z,35.93
2018-01-24T06:06:08.969Z,35.83
2018-01-24T06:07:08.945Z,35.83
2018-01-24T06:08:09.196Z,35.74
2018-01-24T06:09:09.182Z,35.83
2018-01-24T06:10:09.163Z,35.74
2018-01-24T06:11:09.148Z,35.64
2018-01-24T06:12:09.140Z,35.64
2018-01-24T06:13:08.848Z,35.55
2018-01-24T06:14:08.834Z,35.93
2018-01-24T06:15:08.818Z,36.02
2018-01-24T06:16:08.806Z,36.02
2018-01-24T06:17:08.789Z,36.3
2018-01-24T06:18:09.065Z,36.4
2018-01-24T06:19:09.091Z,36.3
2018-01-24T06:20:08.744Z,35.93
2018-01-24T06:21:08.729Z,36.02
2018-01-24T06:22:08.722Z,36.11
2018-01-24T06:23:08.713Z,36.3
2018-01-24T06:24:08.684Z,36.02
2018-01-24T06:25:08.668Z,35.93
2018-01-24T06:26:08.673Z,36.02
2018-01-24T06:27:08.650Z,35.93
2018-01-24T06:28:08.622Z,36.21
2018-01-24T06:29:08.878Z,36.11
2018-01-24T06:30:08.593Z,35.83
2018-01-24T06:31:08.600Z,36.49
2018-01-24T06:32:08.886Z,36.21
2018-01-24T06:33:08.840Z,35.93
2018-01-24T06:34:08.823Z,36.21
2018-01-24T06:35:08.517Z,36.49
2018-01-24T06:36:08.775Z,36.49
2018-01-24T06:37:08.765Z,36.11
2018-01-24T06:38:08.757Z,36.21
2018-01-24T06:39:08.750Z,36.02
2018-01-24T06:40:08.715Z,35.07
2018-01-24T06:41:08.701Z,34.69
2018-01-24T06:42:08.687Z,34.03
2018-01-24T06:43:08.399Z,33.65
2018-01-24T06:44:08.688Z,33.08
2018-01-24T06:45:08.373Z,32.71
2018-01-24T06:46:08.628Z,32.51
2018-01-24T06:47:08.346Z,32.79
2018-01-24T06:48:08.600Z,32.89
2018-01-24T06:49:08.584Z,32.6
2018-01-24T06:50:08.305Z,32.24
2018-01-24T06:51:08.380Z,32.42
2018-01-24T06:52:08.267Z,32.23
2018-01-24T06:53:08.597Z,32.24
2018-01-24T06:54:08.237Z,31.77
2018-01-24T06:55:08.491Z,31.85
2018-01-24T06:56:08.482Z,31.47
2018-01-24T06:57:08.350Z,31.29
2018-01-24T06:58:08.592Z,31.01
2018-01-24T06:59:08.198Z,30.9
2018-01-24T07:00:08.522Z,30.62
2018-01-24T07:01:08.197Z,29.76
2018-01-24T07:02:08.120Z,29.68
2018-01-24T07:03:08.103Z,29.49
2018-01-24T07:04:08.109Z,28.74
2018-01-24T07:05:08.076Z,28.63
2018-01-24T07:06:08.060Z,28.36
2018-01-24T07:07:08.315Z,28.06
2018-01-24T07:08:08.029Z,28.45
2018-01-24T07:09:08.016Z,28.55
2018-01-24T07:10:08.269Z,28.53
2018-01-24T07:11:08.257Z,27.77
2018-01-24T07:12:07.995Z,27.22
2018-01-24T07:13:07.956Z,26.93
2018-01-24T07:14:07.942Z,26.55
2018-01-24T07:15:07.925Z,26.36
2018-01-24T07:16:07.918Z,26.36
2018-01-24T07:17:07.897Z,25.98
2018-01-24T07:18:08.152Z,25.7
2018-01-24T07:19:08.138Z,25.49
2018-01-24T07:20:08.124Z,25.79
2018-01-24T07:21:07.845Z,25.7
2018-01-24T07:22:07.844Z,25.32
2018-01-24T07:23:07.809Z,25.04
2018-01-24T07:24:07.793Z,25.23
2018-01-24T07:25:08.053Z,25.04
2018-01-24T07:26:07.777Z,25.13
2018-01-24T07:27:08.019Z,24.85
2018-01-24T07:28:07.734Z,24.94
2018-01-24T07:29:08.001Z,24.47
2018-01-24T07:30:07.908Z,24.37
2018-01-24T07:31:07.713Z,24.37
2018-01-24T07:32:07.947Z,24.47
2018-01-24T07:33:07.931Z,23.71
2018-01-24T07:34:07.652Z,23.9
2018-01-24T07:35:07.632Z,23.8
2018-01-24T07:36:07.618Z,23.9
2018-01-24T07:37:07.600Z,23.8
2018-01-24T07:38:07.586Z,24.47
2018-01-24T07:39:07.573Z,24.37
2018-01-24T07:40:07.560Z,24.56
2018-01-24T07:41:07.563Z,24.28
2018-01-24T07:42:07.528Z,24.75
2018-01-24T07:43:07.786Z,24.37
2018-01-24T07:44:07.508Z,24.18
2018-01-24T07:45:07.489Z,23.8
2018-01-24T07:46:07.490Z,24.08
2018-01-24T07:47:07.728Z,23.9
2018-01-24T07:48:07.716Z,23.71
2018-01-24T07:49:07.441Z,23.71
2018-01-24T07:50:07.423Z,23.61
2018-01-24T07:51:07.676Z,23.61
2018-01-24T07:52:07.383Z,23.61
2018-01-24T07:53:07.369Z,23.99
2018-01-24T07:54:07.629Z,23.8
2018-01-24T07:55:07.342Z,24.85
2018-01-24T07:56:07.601Z,26.27
2018-01-24T07:57:07.578Z,26.55
2018-01-24T07:58:07.295Z,27.59
2018-01-24T07:59:07.554Z,28.26
2018-01-24T08:00:07.278Z,28.83
2018-01-24T08:01:07.251Z,28.55
2018-01-24T08:02:07.237Z,28.64
2018-01-24T08:03:07.496Z,28.64
2018-01-24T08:04:07.208Z,28.83
2018-01-24T08:05:07.197Z,28.64
2018-01-24T08:06:07.181Z,28.26
2018-01-24T08:07:07.166Z,27.69
2018-01-24T08:08:07.431Z,27.12
2018-01-24T08:09:07.142Z,27.4
2018-01-24T08:10:07.146Z,26.93
2018-01-24T08:11:07.112Z,26.84
2018-01-24T08:12:07.365Z,27.4
2018-01-24T08:13:07.080Z,27.69
2018-01-24T08:14:07.336Z,27.59
2018-01-24T08:15:07.050Z,27.88
2018-01-24T08:16:07.313Z,27.4
2018-01-24T08:17:07.024Z,27.78
2018-01-24T08:18:07.278Z,27.69
2018-01-24T08:19:07.289Z,27.69
2018-01-24T08:20:06.979Z,27.78
2018-01-24T08:21:06.962Z,27.59
2018-01-24T08:22:07.227Z,27.69
2018-01-24T08:23:06.934Z,27.59
2018-01-24T08:24:06.923Z,27.5
2018-01-24T08:25:06.906Z,27.88
2018-01-24T08:26:07.170Z,27.5
2018-01-24T08:27:06.881Z,27.4
2018-01-24T08:28:07.133Z,27.22
2018-01-24T08:29:07.129Z,27.5
2018-01-24T08:30:06.834Z,27.98
2018-01-24T08:31:06.820Z,28.17
2018-01-24T08:32:06.806Z,28.07
2018-01-24T08:33:07.063Z,28.83
2018-01-24T08:34:06.774Z,28.74
2018-01-24T08:35:07.037Z,28.64
2018-01-24T08:36:06.747Z,28.55
2018-01-24T08:37:06.735Z,28.07
2018-01-24T08:38:07.044Z,28.07
2018-01-24T08:39:06.707Z,27.69
2018-01-24T08:40:06.693Z,27.31
2018-01-24T08:41:06.953Z,26.55
2018-01-24T08:42:06.665Z,26.65
2018-01-24T08:43:06.670Z,26.36
2018-01-24T08:44:06.909Z,25.7
2018-01-24T08:45:06.894Z,25.7
2018-01-24T08:46:06.610Z,25.51
2018-01-24T08:47:06.594Z,24.76
2018-01-24T08:48:06.851Z,25.14
2018-01-24T08:49:06.567Z,25.14
2018-01-24T08:50:06.550Z,25.05
2018-01-24T08:51:06.535Z,25.43
2018-01-24T08:52:06.523Z,26.09
2018-01-24T08:53:06.509Z,26.57
2018-01-24T08:54:06.496Z,26.47
2018-01-24T08:55:06.482Z,26.85
2018-01-24T08:56:06.514Z,26.95
2018-01-24T08:57:06.473Z,28.08
2018-01-24T08:58:06.706Z,28.56
2018-01-24T08:59:06.424Z,28.94
2018-01-24T09:00:06.443Z,29.6
2018-01-24T09:01:06.395Z,29.98
2018-01-24T09:02:06.382Z,30.83
2018-01-24T09:03:06.370Z,31.02
2018-01-24T09:04:06.372Z,31.98
2018-01-24T09:05:06.340Z,31.79
2018-01-24T09:06:06.326Z,32.26
2018-01-24T09:07:06.312Z,33.21
2018-01-24T09:08:06.298Z,33.97
2018-01-24T09:09:06.285Z,35.58
2018-01-24T09:10:06.286Z,36.05
2018-01-24T09:11:06.535Z,36.05
2018-01-24T09:12:06.244Z,35.96
2018-01-24T09:13:06.230Z,35.77
2018-01-24T09:14:06.218Z,35.77
2018-01-24T09:15:06.215Z,36.72
2018-01-24T09:16:06.187Z,36.91
2018-01-24T09:17:06.175Z,37.3
2018-01-24T09:18:06.161Z,37.29
2018-01-24T09:19:06.147Z,37.67
2018-01-24T09:20:06.134Z,37.95
2018-01-24T09:21:06.413Z,37.95
2018-01-24T09:22:06.116Z,37.57
2018-01-24T09:23:06.093Z,37.97
2018-01-24T09:24:06.348Z,38.16
2018-01-24T09:25:06.337Z,38.07
2018-01-24T09:26:06.065Z,38.64
2018-01-24T09:27:06.039Z,39.11
2018-01-24T09:28:06.028Z,39.78
2018-01-24T09:29:06.024Z,40.25
2018-01-24T09:30:06.030Z,40.72
2018-01-24T09:31:05.985Z,40.63
2018-01-24T09:32:05.971Z,41.39
2018-01-24T09:33:06.232Z,41.96
2018-01-24T09:34:05.948Z,42.91
2018-01-24T09:35:05.932Z,43.1
2018-01-24T09:36:06.205Z,43.86
2018-01-24T09:37:06.181Z,45.78
2018-01-24T09:38:05.891Z,45.68
2018-01-24T09:39:05.879Z,45.59
2018-01-24T09:40:06.157Z,46.73
2018-01-24T09:41:06.136Z,48.35
2018-01-24T09:42:06.111Z,49.68
2018-01-24T09:43:05.827Z,49.68
2018-01-24T09:44:05.837Z,49.1
2018-01-24T09:45:05.800Z,49.01
2018-01-24T09:46:06.062Z,50.91
2018-01-24T09:47:06.073Z,51.67
2018-01-24T09:48:06.034Z,51.57
2018-01-24T09:49:05.768Z,52.62
2018-01-24T09:50:05.738Z,53.09
2018-01-24T09:51:05.725Z,52.33
2018-01-24T09:52:05.724Z,53.28
2018-01-24T09:53:05.698Z,54.71
2018-01-24T09:54:05.689Z,56.07
2018-01-24T09:55:05.678Z,57.02
2018-01-24T09:56:05.672Z,57.59
2018-01-24T09:57:05.930Z,58.16
2018-01-24T09:58:05.921Z,57.5
2018-01-24T09:59:05.629Z,56.16
2018-01-24T10:00:05.625Z,58.73
2018-01-24T10:01:05.599Z,59.68
2018-01-24T10:02:05.640Z,61.29
2018-01-24T10:03:05.579Z,60.53
2018-01-24T10:04:05.834Z,61.77
2018-01-24T10:05:05.554Z,61.87
2018-01-24T10:06:05.815Z,61.2
2018-01-24T10:07:05.803Z,61.29
2018-01-24T10:08:05.516Z,63.29
2018-01-24T10:09:05.519Z,61.39
2018-01-24T10:10:05.494Z,60.25
2018-01-24T10:11:05.480Z,60.53
2018-01-24T10:12:05.751Z,60.53
2018-01-24T10:13:05.728Z,61.2
2018-01-24T10:14:05.446Z,63.51
2018-01-24T10:15:05.714Z,65.41
2018-01-24T10:16:05.422Z,64.56
2018-01-24T10:17:05.684Z,64.24
2018-01-24T10:18:05.682Z,64.27
2018-01-24T10:19:05.387Z,63.04
2018-01-24T10:20:05.377Z,62.27
2018-01-24T10:21:05.367Z,63.04
2018-01-24T10:22:05.624Z,63.89
2018-01-24T10:23:05.339Z,62.81
2018-01-24T10:24:05.330Z,62.43
2018-01-24T10:25:05.807Z,61.87
2018-01-24T10:26:05.577Z,61.58
2018-01-24T10:27:05.296Z,60.63
2018-01-24T10:28:05.284Z,61.01
2018-01-24T10:29:05.289Z,59.58
2018-01-24T10:30:05.260Z,57.78
2018-01-24T10:31:05.246Z,57.59
2018-01-24T10:32:05.248Z,57.4
2018-01-24T10:33:05.496Z,61.32
2018-01-24T10:34:05.499Z,60.63
2018-01-24T10:35:05.203Z,61.2
2018-01-24T10:36:05.188Z,59.61
2018-01-24T10:37:05.451Z,58.18
2018-01-24T10:38:05.168Z,57.33
2018-01-24T10:39:05.431Z,61.32
2018-01-24T10:40:05.500Z,64.27
2018-01-24T10:41:05.430Z,63.7
2018-01-24T10:42:05.120Z,66.78
2018-01-24T10:43:05.134Z,67.92
2018-01-24T10:44:05.117Z,69.25
2018-01-24T10:45:05.098Z,68.77
2018-01-24T10:46:05.102Z,68.68
2018-01-24T10:47:05.063Z,69.82
2018-01-24T10:48:05.329Z,68.87
2018-01-24T10:49:05.331Z,68.96
2018-01-24T10:50:05.315Z,70.49
2018-01-24T10:51:05.293Z,70.2
2018-01-24T10:52:05.010Z,68.36
2018-01-24T10:53:04.996Z,68.27
2018-01-24T10:54:04.987Z,68.07
2018-01-24T10:55:04.977Z,68.17
2018-01-24T10:56:04.984Z,69.63
2018-01-24T10:57:04.955Z,70.49
2018-01-24T10:58:04.943Z,69.92
2018-01-24T10:59:05.207Z,70.49
2018-01-24T11:00:05.193Z,69.02
2018-01-24T11:01:04.915Z,68.93
2018-01-24T11:02:04.902Z,69.21
2018-01-24T11:03:05.160Z,68.84
2018-01-24T11:04:05.159Z,68.84
2018-01-24T11:05:05.137Z,67.6
2018-01-24T11:06:05.129Z,68.27
2018-01-24T11:07:05.119Z,66.94
2018-01-24T11:08:04.835Z,65.99
2018-01-24T11:09:05.094Z,64.94
2018-01-24T11:10:04.811Z,63.04
2018-01-24T11:11:04.800Z,62.94
2018-01-24T11:12:05.060Z,64.65
2018-01-24T11:13:04.781Z,65.22
2018-01-24T11:14:05.095Z,63.79
2018-01-24T11:15:04.765Z,63.42
2018-01-24T11:16:05.036Z,63.6
2018-01-24T11:17:05.050Z,64.37
2018-01-24T11:18:04.722Z,64.37
2018-01-24T11:19:04.711Z,64.46
2018-01-24T11:20:04.701Z,65.13
2018-01-24T11:21:04.689Z,63.13
2018-01-24T11:22:04.681Z,61.04
2018-01-24T11:23:04.666Z,59.8
2018-01-24T11:24:04.656Z,58.47
2018-01-24T11:25:04.665Z,58.76
2018-01-24T11:26:04.911Z,58.28
2018-01-24T11:27:04.891Z,59.33
2018-01-24T11:28:04.633Z,59.9
2018-01-24T11:29:04.602Z,62.46
2018-01-24T11:30:04.862Z,63.89
2018-01-24T11:31:04.850Z,64.94
2018-01-24T11:32:04.842Z,63.6
2018-01-24T11:33:04.557Z,62.56
2018-01-24T11:34:04.546Z,62.37
2018-01-24T11:35:04.813Z,62.46
2018-01-24T11:36:04.521Z,61.42
2018-01-24T11:37:04.510Z,62.18
2018-01-24T11:38:04.776Z,65.7
2018-01-24T11:39:04.496Z,65.7
2018-01-24T11:40:04.478Z,66.65
2018-01-24T11:41:04.467Z,65.7
2018-01-24T11:42:04.456Z,64.94
2018-01-24T11:43:04.444Z,65.35
2018-01-24T11:44:04.434Z,68.11
2018-01-24T11:45:04.692Z,68.3
2018-01-24T11:46:04.681Z,68.96
2018-01-24T11:47:04.412Z,71.06
2018-01-24T11:48:04.669Z,71.72
2018-01-24T11:49:04.385Z,69.92
2018-01-24T11:50:04.808Z,68.87
2018-01-24T11:51:04.730Z,68.59
2018-01-24T11:52:04.773Z,71.19
2018-01-24T11:53:04.527Z,72.62
2018-01-24T11:54:04.494Z,74.14
2018-01-24T11:55:04.729Z,73.34
2018-01-24T11:56:04.432Z,72.77
2018-01-24T11:57:04.407Z,71.72
2018-01-24T11:58:04.410Z,71.25
2018-01-24T11:59:04.434Z,70.49
2018-01-24T12:00:04.354Z,68.3
2018-01-24T12:01:04.324Z,66.65
2018-01-24T12:02:04.238Z,65.89
2018-01-24T12:03:04.508Z,66.08
2018-01-24T12:04:04.216Z,65.22
2018-01-24T12:05:04.205Z,63.89
2018-01-24T12:06:04.468Z,63.04
2018-01-24T12:07:04.182Z,63.23
2018-01-24T12:08:04.444Z,64.08
2018-01-24T12:09:04.160Z,63.79
2018-01-24T12:10:04.149Z,64.27
2018-01-24T12:11:04.139Z,65.6
2018-01-24T12:12:04.127Z,65.41
2018-01-24T12:13:04.115Z,65.03
2018-01-24T12:14:04.106Z,64.84
2018-01-24T12:15:04.107Z,64.18
2018-01-24T12:16:04.106Z,63.7
2018-01-24T12:17:04.072Z,62.08
2018-01-24T12:18:04.060Z,63.13
2018-01-24T12:19:04.328Z,64.18
2018-01-24T12:20:04.310Z,65.32
2018-01-24T12:21:04.032Z,64.84
2018-01-24T12:22:04.017Z,65.13
2018-01-24T12:23:04.006Z,66.74
2018-01-24T12:24:04.264Z,65.89
2018-01-24T12:25:03.995Z,65.89
2018-01-24T12:26:03.973Z,65.7
2018-01-24T12:27:04.230Z,65.19
2018-01-24T12:28:03.970Z,64.43
2018-01-24T12:29:03.937Z,63.39
2018-01-24T12:30:03.925Z,63.67
2018-01-24T12:31:03.929Z,63.67
2018-01-24T12:32:03.903Z,62.72
2018-01-24T12:33:03.891Z,63.86
2018-01-24T12:34:04.157Z,63.48
2018-01-24T12:35:03.877Z,63.95
2018-01-24T12:36:03.857Z,65.28
2018-01-24T12:37:03.846Z,65.19
2018-01-24T12:38:04.107Z,63.29
2018-01-24T12:39:03.823Z,62.91
2018-01-24T12:40:03.810Z,62.05
2018-01-24T12:41:03.812Z,62.81
2018-01-24T12:42:03.788Z,63.01
2018-01-24T12:43:03.777Z,63.1
2018-01-24T12:44:03.766Z,63.1
2018-01-24T12:45:04.024Z,63.1
2018-01-24T12:46:03.741Z,63.2
2018-01-24T12:47:03.731Z,63.48
2018-01-24T12:48:03.719Z,63.57
2018-01-24T12:49:03.706Z,63.2
2018-01-24T12:50:03.967Z,63.86
2018-01-24T12:51:03.686Z,64.34
2018-01-24T12:52:04.011Z,62.91
2018-01-24T12:53:03.661Z,63.67
2018-01-24T12:54:03.649Z,63.76
2018-01-24T12:55:03.911Z,64.34